Time;durP1;ratioP1;P1;durP2;ratioP2;P2;SDS_P1;SDS_P2;PMS_P1;PMS_P2;Temp;Humidity;BMP_temperature;BMP_pressure;BME280_temperature;BME280_humidity;BME280_pressure;Samples;Min_cycle;Max_cycle;Signal;HPM_P1;HPM_P2
2022/09/24 00:01:55;;;;;;;;;12.50;9.75;;;;;16.79;55.12;100464.84;5109359;27;45349;-79
2022/09/24 00:04:24;;;;;;;;;10.75;9.50;;;;;16.79;55.49;100465.72;5096333;27;45382;-80
2022/09/24 00:06:49;;;;;;;;;8.50;8.50;;;;;16.75;55.43;100457.94;5095179;27;46137;-79
2022/09/24 00:09:20;;;;;;;;;10.50;8.25;;;;;16.76;55.57;100460.53;5095301;27;45400;-79
2022/09/24 00:11:49;;;;;;;;;15.50;11.50;;;;;16.66;55.82;100443.22;5108942;27;45478;-80
2022/09/24 00:14:16;;;;;;;;;10.25;9.50;;;;;16.72;55.94;100458.94;5114794;27;45475;-80
2022/09/24 00:16:43;;;;;;;;;7.75;7.75;;;;;16.72;56.49;100448.28;5112791;27;45551;-79
2022/09/24 00:19:09;;;;;;;;;8.25;8.25;;;;;16.75;56.43;100465.97;5114155;27;45510;-78
2022/09/24 00:21:36;;;;;;;;;9.00;7.50;;;;;16.73;56.75;100452.66;5113861;27;45382;-79
2022/09/24 00:24:08;;;;;;;;;10.50;10.50;;;;;16.68;56.52;100444.00;5114239;27;45414;-78
2022/09/24 00:26:48;;;;;;;;;11.00;9.00;;;;;16.67;56.48;100452.94;5106517;27;45586;-79
2022/09/24 00:29:21;;;;;;;;;11.00;11.00;;;;;16.61;56.77;100442.56;5094613;27;45511;-78
2022/09/24 00:31:47;;;;;;;;;11.25;10.00;;;;;16.62;56.79;100449.66;5097685;27;45368;-78
2022/09/24 00:34:13;;;;;;;;;9.25;9.25;;;;;16.62;57.06;100444.31;5099325;27;45333;-78
2022/09/24 00:36:38;;;;;;;;;9.50;9.50;;;;;16.61;57.17;100443.44;5099295;27;46023;-80
2022/09/24 00:39:03;;;;;;;;;10.50;9.25;;;;;16.59;57.01;100450.66;5106845;27;45396;-78
2022/09/24 00:41:32;;;;;;;;;9.00;8.00;;;;;16.53;57.15;100437.59;5118026;27;45454;-78
2022/09/24 00:43:59;;;;;;;;;9.50;8.00;;;;;16.58;57.25;100448.06;5118384;27;45477;-78
2022/09/24 00:46:29;;;;;;;;;9.00;7.50;;;;;16.56;56.85;100449.94;5110448;27;45331;-78
2022/09/24 00:49:03;;;;;;;;;10.00;7.00;;;;;16.57;57.39;100441.00;5097079;27;45449;-79
2022/09/24 00:51:31;;;;;;;;;9.50;7.25;;;;;16.55;57.67;100437.53;5097300;27;45380;-79
2022/09/24 00:54:02;;;;;;;;;11.00;8.25;;;;;16.42;57.51;100416.75;5096825;27;45663;-79
2022/09/24 00:56:31;;;;;;;;;12.75;8.00;;;;;16.52;57.57;100434.06;5097070;27;46066;-77
2022/09/24 00:59:01;;;;;;;;;10.50;10.50;;;;;16.55;57.54;100448.19;5106028;27;45402;-78
2022/09/24 01:01:28;;;;;;;;;11.00;9.75;;;;;16.55;57.59;100445.53;5120155;27;45291;-79
2022/09/24 01:03:56;;;;;;;;;10.50;10.00;;;;;16.52;57.83;100443.88;5117899;27;45365;-78
2022/09/24 01:06:24;;;;;;;;;14.75;11.50;;;;;16.47;57.92;100433.44;5111374;27;46204;-78
2022/09/24 01:08:50;;;;;;;;;12.00;12.00;;;;;16.47;57.72;100430.78;5103168;27;45356;-78
2022/09/24 01:11:26;;;;;;;;;9.50;8.25;;;;;16.49;57.78;100439.56;5117411;27;45383;-80
2022/09/24 01:14:31;;;;;;;;;11.25;11.00;;;;;16.51;58.38;100439.47;5117633;27;45551;-79
2022/09/24 01:17:00;;;;;;;;;10.25;8.00;;;;;16.49;58.31;100436.03;5105851;27;45930;-79
2022/09/24 01:19:44;;;;;;;;;16.75;12.00;;;;;16.47;58.40;100443.22;5104440;27;45524;-79
2022/09/24 01:22:56;;;;;;;;;11.50;11.25;;;;;16.44;58.79;100436.25;5115020;27;45532;-80
2022/09/24 01:25:41;;;;;;;;;13.25;11.25;;;;;16.44;59.60;100435.38;5096338;27;45345;-79
2022/09/24 01:28:51;;;;;;;;;12.50;11.00;;;;;16.41;60.54;100439.03;5117264;27;46460;-79
2022/09/24 01:31:24;;;;;;;;;12.25;8.00;;;;;16.35;60.85;100425.97;5106782;27;45355;-79
2022/09/24 01:33:53;;;;;;;;;9.50;9.50;;;;;16.35;61.24;100431.31;5097036;27;45541;-79
2022/09/24 01:36:21;;;;;;;;;8.75;7.00;;;;;16.29;61.88;100426.25;5100584;27;45582;-79
2022/09/24 01:38:50;;;;;;;;;16.25;11.50;;;;;16.28;62.24;100424.56;5116474;27;45433;-78
2022/09/24 01:41:17;;;;;;;;;9.50;9.50;;;;;16.25;62.60;100430.88;5109536;27;45474;-78
2022/09/24 01:43:44;;;;;;;;;12.50;12.50;;;;;16.19;62.50;100422.31;5116197;27;45461;-78
2022/09/24 01:46:12;;;;;;;;;11.75;11.75;;;;;16.17;63.50;100417.91;5113054;27;45373;-78
2022/09/24 01:48:39;;;;;;;;;9.00;9.00;;;;;16.14;63.58;100425.19;5096187;27;45347;-78
2022/09/24 01:51:13;;;;;;;;;14.75;10.25;;;;;16.10;63.82;100421.78;5103409;27;45530;-79
2022/09/24 01:53:53;;;;;;;;;15.00;13.25;;;;;16.07;64.59;100410.41;5117194;27;45688;-79
2022/09/24 01:56:25;;;;;;;;;18.50;11.00;;;;;16.07;65.16;100413.06;5112537;27;45438;-79
2022/09/24 01:58:59;;;;;;;;;8.00;8.00;;;;;16.05;64.45;100417.59;5109006;27;46188;-79
2022/09/24 02:01:33;;;;;;;;;12.00;12.00;;;;;15.97;64.51;100402.81;5115748;27;45443;-77
2022/09/24 02:04:05;;;;;;;;;14.50;13.75;;;;;15.92;65.10;100395.97;5097761;27;45410;-79
2022/09/24 02:06:36;;;;;;;;;14.00;12.00;;;;;15.96;65.58;100405.56;5114236;27;45453;-79
2022/09/24 02:09:02;;;;;;;;;14.50;11.75;;;;;15.92;65.82;100401.28;5114938;27;46477;-79
2022/09/24 02:11:32;;;;;;;;;13.00;12.50;;;;;15.87;66.36;100404.16;5115943;27;45401;-79
2022/09/24 02:14:08;;;;;;;;;13.50;11.75;;;;;15.85;67.70;100395.38;5116880;27;45381;-79
2022/09/24 02:16:47;;;;;;;;;10.00;10.00;;;;;15.81;67.87;100397.31;5096936;27;45469;-78
2022/09/24 02:19:17;;;;;;;;;12.25;10.75;;;;;15.80;67.66;100394.72;5109994;27;45765;-78
2022/09/24 02:21:45;;;;;;;;;10.50;10.50;;;;;15.70;67.79;100372.91;5087959;27;45572;-79
2022/09/24 02:24:18;;;;;;;;;18.00;16.50;;;;;15.74;67.78;100379.81;5095580;27;45547;-79
2022/09/24 02:26:44;;;;;;;;;16.50;14.75;;;;;15.70;68.15;100380.91;5082860;27;45651;-79
2022/09/24 02:29:10;;;;;;;;;17.00;10.50;;;;;15.73;68.79;100380.78;5110145;27;45537;-78
2022/09/24 02:31:47;;;;;;;;;11.25;10.00;;;;;15.66;68.92;100379.31;5115408;27;45398;-79
2022/09/24 02:34:24;;;;;;;;;14.75;12.00;;;;;15.62;69.57;100369.72;5116216;27;45401;-79
2022/09/24 02:37:01;;;;;;;;;12.75;12.00;;;;;15.58;69.45;100365.47;5114712;27;45607;-79
2022/09/24 02:39:26;;;;;;;;;12.25;10.25;;;;;15.62;70.28;100377.69;5113809;27;46187;-78
2022/09/24 02:41:53;;;;;;;;;14.75;12.75;;;;;15.56;69.37;100380.63;5116015;27;45521;-78
2022/09/24 02:44:19;;;;;;;;;9.50;9.50;;;;;15.52;69.40;100371.94;5098012;27;45462;-79
2022/09/24 02:46:45;;;;;;;;;12.50;10.75;;;;;15.54;69.64;100369.19;5110772;27;45500;-79
2022/09/24 02:49:13;;;;;;;;;15.75;14.25;;;;;15.50;69.99;100370.25;5107284;27;47988;-79
2022/09/24 02:51:38;;;;;;;;;14.50;12.00;;;;;15.49;70.02;100372.06;5096273;27;45566;-78
2022/09/24 02:54:04;;;;;;;;;17.25;14.50;;;;;15.48;70.63;100364.13;5117708;27;45396;-79
2022/09/24 02:56:30;;;;;;;;;15.25;10.50;;;;;15.44;69.28;100361.63;5113242;27;45535;-77
2022/09/24 02:58:56;;;;;;;;;13.00;13.00;;;;;15.41;69.79;100359.09;5097648;27;45463;-79
2022/09/24 03:01:22;;;;;;;;;14.00;13.75;;;;;15.40;70.03;100357.34;5097876;27;45240;-77
2022/09/24 03:03:48;;;;;;;;;9.50;9.50;;;;;15.44;69.40;100366.06;5097199;27;45584;-78
2022/09/24 03:06:14;;;;;;;;;15.75;14.25;;;;;15.40;70.64;100357.34;5095299;27;45510;-81
2022/09/24 03:08:41;;;;;;;;;11.75;10.00;;;;;15.41;70.88;100363.53;5115531;27;46618;-79
2022/09/24 03:11:09;;;;;;;;;11.50;11.50;;;;;15.40;69.73;100362.66;5114294;27;45546;-79
2022/09/24 03:13:34;;;;;;;;;16.75;15.50;;;;;15.40;70.01;100357.34;5114811;27;45473;-79
2022/09/24 03:16:00;;;;;;;;;15.50;13.00;;;;;15.37;70.55;100348.63;5113511;27;45386;-78
2022/09/24 03:18:25;;;;;;;;;13.75;12.00;;;;;15.38;69.52;100359.22;5095181;27;45414;-79
2022/09/24 03:21:02;;;;;;;;;17.00;13.25;;;;;15.33;68.91;100350.53;5113773;27;45562;-77
2022/09/24 03:23:27;;;;;;;;;14.50;11.50;;;;;15.29;69.73;100343.66;5115564;27;45380;-79
2022/09/24 03:25:53;;;;;;;;;10.75;8.50;;;;;15.33;69.87;100347.88;5099188;27;45322;-78
2022/09/24 03:28:20;;;;;;;;;8.50;8.50;;;;;15.29;70.31;100346.31;5094392;27;45484;-80
2022/09/24 03:31:00;;;;;;;;;10.00;9.50;;;;;15.29;69.14;100351.63;5094700;27;45518;-79
2022/09/24 03:33:40;;;;;;;;;10.25;9.00;;;;;15.29;68.67;100348.97;5094320;27;45393;-79
2022/09/24 03:36:09;;;;;;;;;9.75;9.75;;;;;15.26;68.63;100338.44;5110731;27;45571;-79
2022/09/24 03:38:37;;;;;;;;;9.50;9.00;;;;;15.26;68.65;100349.09;5114581;27;45402;-78
2022/09/24 03:41:04;;;;;;;;;8.75;8.75;;;;;15.21;68.62;100329.78;5113886;27;45272;-78
2022/09/24 03:43:30;;;;;;;;;9.75;8.25;;;;;15.19;68.76;100326.31;5115340;27;45620;-78
2022/09/24 03:45:56;;;;;;;;;13.00;12.50;;;;;15.18;69.12;100329.91;5113485;27;45488;-79
2022/09/24 03:48:23;;;;;;;;;11.50;9.00;;;;;15.27;68.77;100337.50;5113597;27;46207;-78
2022/09/24 03:50:49;;;;;;;;;9.50;8.00;;;;;15.24;68.76;100330.53;5115725;27;45402;-77
2022/09/24 03:53:15;;;;;;;;;3.00;3.00;;;;;15.26;68.81;100338.44;5115714;27;45449;-78
2022/09/24 03:55:45;;;;;;;;;9.00;9.00;;;;;15.19;68.84;100334.31;5101461;27;45354;-79
2022/09/24 03:58:14;;;;;;;;;10.00;10.00;;;;;15.21;68.82;100335.09;5100867;27;45510;-78
2022/09/24 04:00:40;;;;;;;;;13.50;10.75;;;;;15.24;69.28;100337.63;5112210;27;45516;-78
2022/09/24 04:03:07;;;;;;;;;10.75;9.25;;;;;15.23;69.50;100335.94;5114464;27;45591;-78
2022/09/24 04:05:33;;;;;;;;;14.75;11.50;;;;;15.17;69.39;100323.72;5113566;27;45467;-79
2022/09/24 04:07:59;;;;;;;;;15.00;15.00;;;;;15.22;69.15;100331.53;5111172;27;45357;-79
2022/09/24 04:10:24;;;;;;;;;15.25;13.25;;;;;15.15;69.49;100324.72;5112026;27;45404;-78
2022/09/24 04:12:51;;;;;;;;;13.00;10.00;;;;;15.14;69.69;100317.66;5096257;27;45575;-78
2022/09/24 04:15:17;;;;;;;;;11.00;10.00;;;;;15.21;69.58;100330.66;5107225;27;45522;-78
2022/09/24 04:17:50;;;;;;;;;13.75;12.00;;;;;15.18;69.27;100319.25;5117255;27;46130;-78
2022/09/24 04:20:15;;;;;;;;;9.50;9.50;;;;;15.14;69.13;100312.34;5110017;27;45478;-78
2022/09/24 04:22:40;;;;;;;;;9.25;9.00;;;;;15.19;69.35;100331.66;5098365;27;45380;-78
2022/09/24 04:25:06;;;;;;;;;14.25;13.00;;;;;15.17;69.39;100326.41;5104832;27;45260;-79
2022/09/24 04:27:31;;;;;;;;;15.75;14.00;;;;;15.10;69.44;100316.94;5117740;27;45463;-79
2022/09/24 04:29:57;;;;;;;;;12.75;12.00;;;;;15.06;70.10;100313.56;5118847;27;47564;-78
2022/09/24 04:32:22;;;;;;;;;10.00;8.00;;;;;14.97;69.80;100303.31;5098751;27;45481;-78
2022/09/24 04:34:48;;;;;;;;;13.25;9.25;;;;;15.14;68.93;100336.28;5118091;27;45476;-77
2022/09/24 04:37:13;;;;;;;;;11.25;10.50;;;;;15.09;69.21;100328.50;5117525;27;46143;-79
2022/09/24 04:39:38;;;;;;;;;11.50;9.75;;;;;15.04;69.01;100312.72;5117529;27;45434;-78
2022/09/24 04:42:04;;;;;;;;;11.25;10.50;;;;;15.10;69.11;100333.75;5118740;27;45384;-78
2022/09/24 04:44:29;;;;;;;;;14.75;12.50;;;;;15.03;68.79;100316.34;5117140;27;45423;-78
2022/09/24 04:47:00;;;;;;;;;16.25;11.00;;;;;15.11;68.82;100334.66;5117283;27;45440;-78
2022/09/24 04:49:26;;;;;;;;;13.00;12.50;;;;;15.04;68.20;100323.38;5098970;27;45532;-79
2022/09/24 04:51:52;;;;;;;;;16.75;11.25;;;;;15.09;69.31;100337.38;5117596;27;45387;-78
2022/09/24 04:54:17;;;;;;;;;11.00;9.75;;;;;14.99;69.28;100316.53;5115908;27;45410;-78
2022/09/24 04:56:43;;;;;;;;;12.00;10.00;;;;;15.09;69.72;100340.03;5117280;27;49358;-78
2022/09/24 04:59:09;;;;;;;;;12.50;8.50;;;;;15.08;69.95;100335.63;5099366;27;45508;-79
2022/09/24 05:01:34;;;;;;;;;11.00;8.00;;;;;15.07;69.53;100335.69;5115862;27;45525;-78
2022/09/24 05:04:00;;;;;;;;;11.00;11.00;;;;;15.04;69.67;100333.16;5099113;27;45534;-79
2022/09/24 05:06:26;;;;;;;;;9.00;9.00;;;;;14.99;69.78;100325.38;5099328;27;45983;-79
2022/09/24 05:08:51;;;;;;;;;13.50;13.50;;;;;15.00;69.81;100326.22;5097218;27;45488;-77
2022/09/24 05:11:19;;;;;;;;;9.50;9.50;;;;;15.03;69.40;100340.28;5097110;27;45470;-80
2022/09/24 05:13:44;;;;;;;;;11.50;9.00;;;;;15.03;69.57;100345.63;5079645;27;45387;-79
2022/09/24 05:16:09;;;;;;;;;10.50;9.50;;;;;14.97;69.16;100332.56;5112930;27;45389;-78
2022/09/24 05:18:35;;;;;;;;;10.75;10.75;;;;;14.92;69.53;100326.56;5118398;27;45425;-80
2022/09/24 05:21:02;;;;;;;;;10.75;10.75;;;;;14.96;68.94;100340.63;5106352;27;45417;-79
2022/09/24 05:23:27;;;;;;;;;9.50;6.25;;;;;14.92;69.05;100337.19;5110559;27;45429;-80
2022/09/24 05:28:39;;;;;;;;;13.25;11.50;;;;;14.91;69.49;100348.78;5096587;27;45458;-79
2022/09/24 05:31:04;;;;;;;;;16.75;12.00;;;;;14.87;69.45;100342.72;5098432;27;45490;-77
2022/09/24 05:33:30;;;;;;;;;13.25;11.00;;;;;14.91;69.37;100348.78;5100436;27;45496;-79
2022/09/24 05:35:56;;;;;;;;;11.25;10.00;;;;;14.92;69.53;100351.41;5112927;27;45408;-79
2022/09/24 05:38:23;;;;;;;;;12.00;11.75;;;;;14.92;69.02;100356.72;5117151;27;45322;-79
2022/09/24 05:40:49;;;;;;;;;11.25;11.25;;;;;14.82;69.09;100346.50;5117048;27;45447;-77
2022/09/24 05:43:16;;;;;;;;;10.25;9.75;;;;;14.90;69.28;100358.56;5116813;27;45333;-78
2022/09/24 05:45:49;;;;;;;;;9.75;8.75;;;;;14.88;69.03;100360.44;5117203;27;45484;-79
2022/09/24 05:48:15;;;;;;;;;7.50;7.00;;;;;14.82;69.30;100350.03;5101830;27;45557;-78
2022/09/24 05:50:41;;;;;;;;;14.50;13.25;;;;;14.90;68.50;100363.03;5115188;27;45490;-79
2022/09/24 05:53:08;;;;;;;;;17.00;10.75;;;;;14.92;69.07;100358.50;5108956;27;45385;-80
2022/09/24 05:55:34;;;;;;;;;13.50;10.00;;;;;14.93;69.24;100362.88;5104802;27;45535;-79
2022/09/24 05:58:09;;;;;;;;;11.50;9.75;;;;;14.89;69.24;100353.28;5116438;27;45403;-79
2022/09/24 06:00:35;;;;;;;;;11.25;10.00;;;;;14.96;69.42;100361.91;5116849;27;45546;-80
2022/09/24 06:03:28;;;;;;;;;10.25;7.25;;;;;14.99;69.65;100367.97;5097778;27;45355;-81
2022/09/24 06:05:55;;;;;;;;;12.75;8.75;;;;;14.97;69.90;100367.16;5100023;27;45909;-78
2022/09/24 06:08:20;;;;;;;;;10.25;6.00;;;;;14.92;69.94;100354.06;5081147;27;45403;-79
2022/09/24 06:10:47;;;;;;;;;11.00;7.00;;;;;15.00;70.71;100369.69;5116056;27;45401;-78
2022/09/24 06:13:17;;;;;;;;;8.75;6.50;;;;;15.03;70.99;100368.69;5116235;27;45310;-79
2022/09/24 06:15:43;;;;;;;;;10.25;8.00;;;;;15.05;70.91;100381.00;5116504;27;45461;-78
2022/09/24 06:18:10;;;;;;;;;9.75;8.50;;;;;15.04;71.48;100373.94;5116390;27;45367;-80
2022/09/24 06:20:35;;;;;;;;;9.00;6.75;;;;;15.01;70.64;100387.38;5116337;27;45454;-79
2022/09/24 06:23:01;;;;;;;;;8.00;8.00;;;;;15.00;71.00;100387.44;5115651;27;45730;-79
2022/09/24 06:25:27;;;;;;;;;8.50;8.50;;;;;15.01;71.99;100387.38;5115531;27;45945;-80
2022/09/24 06:28:08;;;;;;;;;10.50;9.00;;;;;14.89;70.58;100369.25;5118071;27;45374;-80
2022/09/24 06:30:40;;;;;;;;;6.25;6.00;;;;;14.98;70.97;100382.19;5117062;27;45539;-79
2022/09/24 06:33:10;;;;;;;;;5.25;5.25;;;;;14.99;71.07;100389.25;5115024;27;45442;-79
2022/09/24 06:35:43;;;;;;;;;7.50;7.50;;;;;14.90;70.84;100369.19;5098216;27;47505;-79
2022/09/24 06:38:14;;;;;;;;;12.50;7.00;;;;;14.98;70.87;100387.50;5103523;27;45521;-79
2022/09/24 06:40:44;;;;;;;;;12.25;10.00;;;;;14.96;70.54;100389.38;5116224;27;45396;-78
2022/09/24 06:43:10;;;;;;;;;7.50;6.25;;;;;14.99;71.37;100394.56;5115242;27;45535;-79
2022/09/24 06:45:36;;;;;;;;;10.00;7.00;;;;;15.00;71.31;100388.34;5116253;27;46411;-81
2022/09/24 06:48:03;;;;;;;;;7.50;5.75;;;;;14.86;71.26;100366.72;5097909;27;45712;-79
2022/09/24 06:50:30;;;;;;;;;12.50;11.50;;;;;15.04;71.64;100400.56;5115391;27;45347;-79
2022/09/24 06:52:57;;;;;;;;;7.00;7.00;;;;;15.04;71.09;100397.91;5114079;27;45731;-80
2022/09/24 06:55:23;;;;;;;;;10.25;9.75;;;;;15.07;70.96;100395.09;5094202;27;45592;-79
2022/09/24 06:57:49;;;;;;;;;7.00;7.00;;;;;15.10;71.21;100396.78;5132822;27;45512;-79
2022/09/24 07:00:15;;;;;;;;;6.00;6.00;;;;;14.98;71.39;100376.84;5126647;27;45481;-79
2022/09/24 07:02:41;;;;;;;;;14.00;9.25;;;;;14.99;71.19;100386.59;5106133;27;45529;-81
2022/09/24 07:05:08;;;;;;;;;9.50;8.50;;;;;15.09;70.95;100409.25;5084102;27;45964;-79
2022/09/24 07:07:34;;;;;;;;;6.25;6.00;;;;;15.16;71.11;100406.31;5121600;27;45381;-80
2022/09/24 07:10:06;;;;;;;;;7.00;6.75;;;;;15.18;71.70;100399.97;5112813;27;45497;-80
2022/09/24 07:12:34;;;;;;;;;8.50;6.75;;;;;15.21;70.51;100401.66;5106958;27;45378;-80
2022/09/24 07:15:00;;;;;;;;;8.00;8.00;;;;;15.17;70.67;100402.69;5089827;27;46411;-81
2022/09/24 07:17:27;;;;;;;;;6.50;6.50;;;;;15.08;71.09;100407.50;5114564;27;45429;-79
2022/09/24 07:19:53;;;;;;;;;10.50;7.25;;;;;15.00;70.78;100400.75;5114891;27;45630;-81
2022/09/24 07:22:18;;;;;;;;;6.75;6.75;;;;;15.02;72.31;100406.91;5109779;27;45609;-79
2022/09/24 07:24:45;;;;;;;;;10.00;9.00;;;;;15.07;71.60;100408.41;5114801;27;46331;-79
2022/09/24 07:27:10;;;;;;;;;9.50;7.00;;;;;15.16;72.24;100411.63;5114173;27;45394;-80
2022/09/24 07:29:36;;;;;;;;;11.25;10.00;;;;;15.10;71.78;100400.31;5105627;27;45556;-79
2022/09/24 07:32:02;;;;;;;;;8.25;8.25;;;;;15.21;71.59;100412.31;5128064;27;45421;-81
2022/09/24 07:34:28;;;;;;;;;10.50;10.50;;;;;15.20;72.15;100411.44;5134481;27;46062;-81
2022/09/24 07:36:57;;;;;;;;;11.50;7.50;;;;;15.14;71.89;100413.47;5121407;27;45422;-81
2022/09/24 07:39:24;;;;;;;;;10.50;9.00;;;;;15.17;71.80;100413.34;5115401;27;45404;-81
2022/09/24 07:41:51;;;;;;;;;10.00;8.75;;;;;15.12;71.25;100423.34;5131180;27;45506;-78
2022/09/24 07:44:19;;;;;;;;;10.00;9.50;;;;;15.05;72.96;100410.28;5130401;27;45705;-79
2022/09/24 07:46:51;;;;;;;;;9.75;6.25;;;;;15.09;71.62;100422.53;5090721;27;45465;-80
2022/09/24 07:49:17;;;;;;;;;6.00;6.00;;;;;14.79;71.71;100375.88;5094955;27;45510;-80
2022/09/24 07:51:43;;;;;;;;;10.25;7.75;;;;;14.89;71.95;100401.19;5107536;27;45807;-80
2022/09/24 07:54:08;;;;;;;;;7.50;7.50;;;;;15.05;71.38;100431.56;5092798;27;47890;-79
2022/09/24 07:56:34;;;;;;;;;8.00;8.00;;;;;15.07;71.52;100431.50;5111807;27;45712;-79
2022/09/24 07:58:59;;;;;;;;;9.00;7.50;;;;;15.08;71.83;100431.44;5112666;27;45357;-79
2022/09/24 08:01:26;;;;;;;;;9.00;7.00;;;;;15.08;71.70;100439.44;5112695;27;45520;-80
2022/09/24 08:03:52;;;;;;;;;7.75;6.50;;;;;15.07;71.95;100434.16;5113521;27;45493;-80
2022/09/24 08:06:18;;;;;;;;;10.00;9.00;;;;;14.98;72.04;100422.09;5113424;27;45440;-80
2022/09/24 08:08:47;;;;;;;;;9.50;9.00;;;;;15.13;72.42;100433.06;5111614;27;45627;-81
2022/09/24 08:11:13;;;;;;;;;11.50;9.50;;;;;15.15;72.08;100440.03;5112600;27;45372;-81
2022/09/24 08:13:38;;;;;;;;;7.75;7.75;;;;;15.14;72.60;100440.97;5113875;27;45620;-82
2022/09/24 08:16:05;;;;;;;;;4.50;4.50;;;;;15.13;70.03;100449.88;5112073;27;45631;-80
2022/09/24 08:18:32;;;;;;;;;8.75;7.25;;;;;15.09;69.98;100443.84;5113146;27;45377;-79
2022/09/24 08:21:02;;;;;;;;;8.50;6.50;;;;;15.07;70.96;100445.69;5111202;27;45653;-79
2022/09/24 08:23:28;;;;;;;;;9.25;5.00;;;;;15.04;70.64;100439.63;5111734;27;45946;-79
2022/09/24 08:25:54;;;;;;;;;9.00;6.50;;;;;15.10;70.01;100450.88;5106124;27;45287;-80
2022/09/24 08:28:20;;;;;;;;;4.25;2.25;;;;;15.06;70.67;100454.59;5107839;27;45528;-80
2022/09/24 08:30:45;;;;;;;;;5.00;5.00;;;;;15.02;70.41;100442.34;5113302;27;45618;-80
2022/09/24 08:33:11;;;;;;;;;7.75;5.75;;;;;15.05;71.27;100444.88;5113623;27;46240;-80
2022/09/24 08:35:39;;;;;;;;;4.50;3.00;;;;;15.14;71.14;100461.41;5113665;27;45439;-81
2022/09/24 08:38:05;;;;;;;;;4.00;4.00;;;;;15.16;71.36;100462.22;5113147;27;45479;-81
2022/09/24 08:40:35;;;;;;;;;7.00;6.00;;;;;15.30;71.86;100457.19;5112232;27;45568;-81
2022/09/24 08:43:28;;;;;;;;;7.00;6.00;;;;;15.40;70.51;100461.19;5112587;27;45486;-79
2022/09/24 08:48:51;;;;;;;;;7.00;7.00;;;;;15.55;70.67;100464.16;5121448;27;45430;-81
2022/09/24 08:51:19;;;;;;;;;6.00;6.00;;;;;15.55;69.83;100462.34;5111402;27;45496;-82
2022/09/24 08:53:47;;;;;;;;;13.00;11.75;;;;;15.66;70.55;100464.56;5115280;27;45441;-78
2022/09/24 08:56:17;;;;;;;;;11.75;7.25;;;;;15.71;70.42;100459.03;5115245;27;45329;-78
2022/09/24 08:58:49;;;;;;;;;11.50;9.00;;;;;15.92;70.19;100468.78;5114816;27;45569;-79
2022/09/24 09:01:19;;;;;;;;;6.50;6.00;;;;;15.84;69.52;100443.41;5106121;27;45559;-79
2022/09/24 09:03:57;;;;;;;;;10.75;8.00;;;;;15.90;68.99;100461.81;5112990;27;45946;-78
2022/09/24 09:06:52;;;;;;;;;9.50;8.00;;;;;15.91;69.58;100474.16;5113932;27;45361;-77
2022/09/24 09:09:24;;;;;;;;;6.50;6.50;;;;;15.81;69.73;100461.25;5113666;27;45390;-78
2022/09/24 09:12:03;;;;;;;;;11.00;11.00;;;;;15.98;69.99;100470.31;5104597;27;45476;-78
2022/09/24 09:14:42;;;;;;;;;10.50;10.50;;;;;16.07;69.34;100471.72;5114989;27;45543;-77
2022/09/24 09:17:31;;;;;;;;;7.25;6.75;;;;;16.14;69.71;100467.84;5112215;27;45663;-78
2022/09/24 09:20:00;;;;;;;;;18.75;12.50;;;;;16.19;69.17;100459.63;5114013;27;45369;-78
2022/09/24 09:22:33;;;;;;;;;8.50;8.50;;;;;16.29;69.31;100466.25;5095504;27;45615;-78
2022/09/24 09:25:10;;;;;;;;;9.25;7.25;;;;;16.38;68.73;100465.84;5114114;27;46379;-78
2022/09/24 09:27:35;;;;;;;;;13.25;9.25;;;;;16.47;68.77;100472.56;5112081;27;45623;-77
2022/09/24 09:30:05;;;;;;;;;11.00;9.75;;;;;16.51;68.77;100468.81;5115544;27;45623;-78
2022/09/24 09:32:41;;;;;;;;;15.50;14.50;;;;;16.59;67.93;100473.81;5115465;27;45684;-78
2022/09/24 09:35:33;;;;;;;;;7.75;7.25;;;;;16.70;68.47;100475.03;5114766;27;45539;-78
2022/09/24 09:38:22;;;;;;;;;15.50;11.00;;;;;16.80;67.69;100461.25;5095184;27;45536;-78
2022/09/24 09:41:09;;;;;;;;;11.25;11.00;;;;;16.87;66.96;100471.59;5099686;27;45410;-77
2022/09/24 09:43:35;;;;;;;;;15.50;12.75;;;;;16.94;66.63;100473.97;5112794;27;45876;-76
2022/09/24 09:46:09;;;;;;;;;8.50;8.50;;;;;16.98;67.09;100478.22;5107847;27;45452;-77
2022/09/24 09:48:43;;;;;;;;;9.75;7.00;;;;;17.04;66.31;100478.78;5113469;27;45445;-77
2022/09/24 09:51:16;;;;;;;;;9.25;7.50;;;;;17.07;65.92;100472.44;5113773;27;45652;-77
2022/09/24 09:53:53;;;;;;;;;9.25;8.25;;;;;16.97;64.96;100461.31;5115229;27;45435;-78
2022/09/24 09:56:23;;;;;;;;;7.75;6.75;;;;;17.03;65.16;100469.03;5114246;27;46024;-76
2022/09/24 09:58:52;;;;;;;;;9.00;8.00;;;;;17.12;64.32;100470.41;5113818;27;45528;-79
2022/09/24 10:01:18;;;;;;;;;10.00;10.00;;;;;17.10;64.49;100468.75;5107576;27;45428;-79
2022/09/24 10:03:43;;;;;;;;;11.00;11.00;;;;;17.17;65.32;100473.72;5114804;27;45436;-75
2022/09/24 10:06:11;;;;;;;;;14.00;12.75;;;;;17.18;64.77;100480.78;5112013;27;46216;-78
2022/09/24 10:08:37;;;;;;;;;9.50;9.50;;;;;17.22;64.75;100474.34;5115803;27;45521;-79
2022/09/24 10:11:02;;;;;;;;;8.25;3.00;;;;;17.18;64.40;100470.09;5093971;27;45425;-77
2022/09/24 10:13:31;;;;;;;;;11.50;9.00;;;;;17.20;63.68;100478.03;5115113;27;45505;-78
2022/09/24 10:15:59;;;;;;;;;17.25;12.25;;;;;17.05;63.66;100452.97;5115610;27;45328;-78
2022/09/24 10:18:35;;;;;;;;;15.00;11.00;;;;;17.17;63.87;100479.06;5114352;27;45397;-79
2022/09/24 10:21:08;;;;;;;;;7.00;7.00;;;;;17.22;64.50;100471.69;5114451;27;45553;-79
2022/09/24 10:23:41;;;;;;;;;13.75;10.00;;;;;17.26;64.66;100474.19;5114188;27;45406;-78
2022/09/24 10:26:08;;;;;;;;;10.50;9.50;;;;;17.31;64.93;100480.16;5114073;27;45570;-79
2022/09/24 10:31:29;;;;;;;;;11.25;8.50;;;;;17.20;64.44;100462.00;5114609;27;45439;-80
2022/09/24 10:33:57;;;;;;;;;15.25;13.00;;;;;17.23;64.02;100477.88;5113655;27;45481;-78
2022/09/24 10:36:28;;;;;;;;;14.50;13.00;;;;;17.22;64.30;100473.50;5112671;27;46283;-79
2022/09/24 10:39:06;;;;;;;;;16.75;14.75;;;;;17.22;63.78;100476.16;5115534;27;45390;-78
2022/09/24 10:41:31;;;;;;;;;11.25;11.00;;;;;17.22;64.15;100474.34;5114770;27;45539;-81
2022/09/24 10:44:03;;;;;;;;;16.75;13.00;;;;;17.23;64.24;100478.75;5113912;27;45635;-79
2022/09/24 10:46:53;;;;;;;;;12.50;12.25;;;;;17.32;64.44;100477.41;5109742;27;45646;-79
2022/09/24 10:49:43;;;;;;;;;16.00;16.00;;;;;17.43;64.43;100476.91;5111200;27;45425;-78
2022/09/24 10:52:39;;;;;;;;;16.75;14.75;;;;;17.61;64.14;100468.88;5095396;27;45386;-79
2022/09/24 10:55:18;;;;;;;;;17.50;14.25;;;;;17.83;63.73;100474.88;5110650;27;45458;-79
2022/09/24 10:58:07;;;;;;;;;16.75;16.00;;;;;18.05;62.30;100477.31;5104756;27;46371;-80
2022/09/24 11:00:36;;;;;;;;;15.25;13.00;;;;;18.21;61.88;100468.47;5107410;27;45668;-79
2022/09/24 11:03:13;;;;;;;;;16.50;15.25;;;;;18.36;61.53;100458.78;5114005;27;45498;-79
2022/09/24 11:05:51;;;;;;;;;19.50;14.00;;;;;18.71;60.24;100474.72;5113489;27;45458;-78
2022/09/24 11:08:32;;;;;;;;;10.75;9.50;;;;;18.98;59.19;100462.47;5114436;27;46623;-78
2022/09/24 11:11:19;;;;;;;;;17.00;15.25;;;;;19.25;59.67;100469.88;5105930;27;45455;-79
2022/09/24 11:13:55;;;;;;;;;14.50;13.75;;;;;19.53;58.53;100462.91;5110807;27;46047;-80
2022/09/24 11:16:24;;;;;;;;;15.25;12.25;;;;;19.88;57.38;100463.47;5108854;27;45533;-77
2022/09/24 11:19:03;;;;;;;;;20.25;15.25;;;;;20.20;56.41;100465.16;5110806;27;45464;-77
2022/09/24 11:22:03;;;;;;;;;17.75;15.25;;;;;20.48;55.93;100466.09;5113847;27;45566;-83
2022/09/24 11:25:32;;;;;;;;;18.75;14.50;;;;;20.59;53.88;100468.97;5111646;27;45496;-79
2022/09/24 11:28:00;;;;;;;;;19.50;19.50;;;;;20.67;54.25;100466.69;5029525;28;45716;-79
2022/09/24 11:30:38;;;;;;;;;17.75;16.75;;;;;20.50;53.38;100430.16;5031523;28;45550;-79
2022/09/24 11:33:31;;;;;;;;;16.25;16.00;;;;;20.74;53.47;100457.28;5029214;28;45495;-80
2022/09/24 11:36:19;;;;;;;;;18.50;13.50;;;;;20.83;54.15;100465.69;5029583;28;45434;-81
2022/09/24 11:38:50;;;;;;;;;17.25;13.25;;;;;20.81;52.80;100464.94;5016514;28;45539;-80
2022/09/24 11:41:34;;;;;;;;;12.75;12.75;;;;;20.64;53.06;100460.63;5029699;28;45521;-78